Terminal Aerodrome Forecast
Issued by NWS Pendleton, OR

Home | Current Version | Previous Version | Text Only | Print | Product List | Glossary On
Versions: 1 2 3 4 5 6 7 8 9 10 11 12 13 14 15 16
000
FTUS46 KPDT 192320
TAFPDT
TAF
KPDT 192320Z 2000/2024 24010G20KT P6SM VCSH SCT040 BKN060
      TEMPO 2000/2002 -SHRA BKN040
     FM200400 24011KT P6SM SCT050 BKN070
     FM200900 25008KT 6SM -RA SCT035 OVC050
     FM201900 28011G19KT P6SM SHRA SCT040 BKN060=

USA.gov is the U.S. government's official web portal to all federal, state and local government web resources and services.